Etihad Airways Virtual Airport Information Service

Vienna International Airport

ICAO: LOWW Country: Austria
Latitude: 48.1103 Longitude: 16.5697
Latest Arrival : QTR185 (OTHH-LOWW) Latest Departure : ETD5984 (LOWW-LYBE)


WX CaptureLIVE
Data provided by noaa.gov | Recorded at 23:23:07

METAR : LOWW 182250Z 25006KT CAVOK 14/12 Q1015 NOSIG

TAF : LOWW 182015Z 1821/2003 31007KT 9999 FEW030 SCT045 TX17/1914Z TN10/2002Z TEMPO 1908/1916 02010KT


Runway Data for LOWW
Data provided by openaviationdata.com

Runway ID Mag Var Hdg Length Elevation Surface ILS Freq ILS Id ILS Slope

Vienna International Airport, Austria
Use only for reference purposes